, TX

(GMT )
Brazos 451

Weather History for KBQX - December, 2013

Change the Weather History Date:

Thursday, December 26, 2013

  Actual Average Record
Temperature  
Mean Temperature 58 °F -  
Max Temperature 60 °F - - ()
Min Temperature 57 °F - - ()
Degree Days  
Heating Degree Days 6    
Growing Degree Days 8 (Base 50)    
Moisture  
Dew Point 45 °F    
Average Humidity 59    
Maximum Humidity 72    
Minimum Humidity 48    
Precipitation  
Precipitation 0.00 in - - ()
Sea Level Pressure  
Sea Level Pressure 30.32 in    
Wind  
Wind Speed 14 mph (ENE)    
Max Wind Speed 21 mph    
Max Gust Speed 28 mph    
Visibility 10 miles    
Events      
Averages and records for this station are not official NWS values.
T = Trace of Precipitation, MM = Missing Value Source: NWS Daily Summary

Daily Weather History Graph

Daily Weather History Graph

Search for Another Location

Airport or City:

Trip Planner

Search our weather history database for the weather conditions in past years. The results will help you decide how hot, cold, wet, or windy it might be!

Date:

Astronomy

Dec. 26, 2013 Rise Set
Actual Time 7:13 AM CST 5:33 PM CST
Civil Twilight 6:47 AM CST 5:59 PM CST
Nautical Twilight 6:18 AM CST 6:29 PM CST
Astronomical Twilight 5:49 AM CST 6:58 PM CST
Moon 1:04 AM CST (12/26) 12:51 PM CST (12/26)
Length of Visible Light 11h 12m
Length of Day
10h 20m
Last Quarter, 38% of the Moon is Illuminated
Dec 26
Last Quarter
Jan 1
New
Jan 7
First Quarter
Jan 15
Full
Jan 23
Last Quarter

Hourly Weather History & Observations

Time (CST) Temp. Dew Point Humidity Pressure Visibility Wind Dir Wind Speed Gust Speed Precip Events Conditions
12:15 AM 60.8 °F 41.0 °F 48% 30.31 in 10.0 mi ENE 16.1 mph - N/A   Overcast
12:35 AM 60.8 °F 41.0 °F 48% 30.31 in 10.0 mi ENE 9.2 mph 19.6 mph N/A   Overcast
12:55 AM 60.8 °F 41.0 °F 48% 30.31 in 10.0 mi ENE 13.8 mph 19.6 mph N/A   Overcast
1:15 AM 60.8 °F 42.8 °F 52% 30.31 in 10.0 mi ENE 12.7 mph 20.7 mph N/A   Overcast
1:35 AM 60.8 °F 42.8 °F 52% 30.31 in 10.0 mi ENE 13.8 mph - N/A   Overcast
1:55 AM 60.8 °F 44.6 °F 55% 30.31 in 10.0 mi ENE 11.5 mph 18.4 mph N/A   Overcast
2:15 AM 60.8 °F 44.6 °F 55% 30.31 in 10.0 mi ENE 12.7 mph 18.4 mph N/A   Overcast
2:35 AM 60.8 °F 46.4 °F 59% 30.30 in 10.0 mi ENE 11.5 mph 17.3 mph N/A   Overcast
2:55 AM 60.8 °F 46.4 °F 59% 30.30 in 10.0 mi ENE 12.7 mph - N/A   Overcast
3:15 AM 60.8 °F 46.4 °F 59% 30.30 in 10.0 mi ENE 13.8 mph - N/A   Overcast
3:35 AM - - N/A% 30.30 in 10.0 mi NE 15.0 mph - N/A   Overcast
3:55 AM 59.0 °F 48.2 °F 67% 30.30 in 10.0 mi NE 15.0 mph 20.7 mph N/A   Overcast
4:15 AM 59.0 °F 48.2 °F 67% 30.30 in 10.0 mi NE 18.4 mph - N/A   Overcast
4:35 AM 59.0 °F 48.2 °F 67% 30.29 in 10.0 mi NE 19.6 mph - N/A   Overcast
4:55 AM 59.0 °F 48.2 °F 67% 30.29 in 10.0 mi NE 17.3 mph 23.0 mph N/A   Overcast
5:15 AM 59.0 °F 46.4 °F 63% 30.29 in 10.0 mi NE 18.4 mph - N/A   Overcast
5:35 AM 59.0 °F 46.4 °F 63% 30.30 in 10.0 mi ENE 16.1 mph - N/A   Overcast
5:55 AM 59.0 °F 46.4 °F 63% 30.31 in 10.0 mi ENE 15.0 mph 20.7 mph N/A   Overcast
6:15 AM 59.0 °F 44.6 °F 59% 30.31 in 10.0 mi ENE 15.0 mph 21.9 mph N/A   Overcast
6:35 AM 59.0 °F 46.4 °F 63% 30.31 in 10.0 mi NE 13.8 mph 27.6 mph N/A   Scattered Clouds
6:55 AM 57.2 °F 48.2 °F 72% 30.31 in 9.0 mi NE 18.4 mph 27.6 mph N/A   Clear
7:15 AM 57.2 °F 48.2 °F 72% 30.31 in 10.0 mi NE 16.1 mph 25.3 mph N/A   Clear
7:35 AM 57.2 °F 48.2 °F 72% 30.32 in 10.0 mi ENE 15.0 mph 20.7 mph N/A   Clear
7:55 AM 59.0 °F 46.4 °F 63% 30.33 in 10.0 mi East 17.3 mph 27.6 mph N/A   Clear
8:15 AM 59.0 °F 46.4 °F 63% 30.33 in 10.0 mi ENE 20.7 mph 27.6 mph N/A   Clear
8:35 AM 59.0 °F 46.4 °F 63% 30.33 in 10.0 mi ENE 13.8 mph 27.6 mph N/A   Clear
8:55 AM 59.0 °F 46.4 °F 63% 30.34 in 10.0 mi ENE 16.1 mph 21.9 mph N/A   Clear
9:15 AM 59.0 °F 46.4 °F 63% 30.35 in 10.0 mi ENE 15.0 mph - N/A   Clear
9:35 AM 59.0 °F 46.4 °F 63% 30.35 in 10.0 mi ENE 13.8 mph 20.7 mph N/A   Clear
9:55 AM 59.0 °F 46.4 °F 63% 30.36 in 10.0 mi ENE 15.0 mph 20.7 mph N/A   Clear
10:15 AM 59.0 °F 46.4 °F 63% 30.36 in 10.0 mi ENE 15.0 mph - N/A   Clear
10:35 AM 59.0 °F 46.4 °F 63% 30.36 in 10.0 mi ENE 13.8 mph - N/A   Partly Cloudy
10:55 AM 59.0 °F 46.4 °F 63% 30.35 in 10.0 mi ENE 13.8 mph 24.2 mph N/A   Partly Cloudy
11:15 AM 59.0 °F 42.8 °F 55% 30.35 in 10.0 mi ENE 15.0 mph 21.9 mph N/A   Clear
11:35 AM 60.8 °F 42.8 °F 52% 30.34 in 10.0 mi ENE 16.1 mph - N/A   Clear
11:55 AM 60.8 °F 44.6 °F 55% 30.34 in 10.0 mi ENE 12.7 mph 20.7 mph N/A   Clear
12:15 PM 60.8 °F 41.0 °F 48% 30.34 in 10.0 mi ENE 15.0 mph 21.9 mph N/A   Clear
12:35 PM 60.8 °F 42.8 °F 52% 30.33 in 10.0 mi ENE 11.5 mph 23.0 mph N/A   Clear
12:55 PM 60.8 °F 41.0 °F 48% 30.32 in 10.0 mi ENE 12.7 mph 20.7 mph N/A   Partly Cloudy
1:15 PM 59.0 °F 42.8 °F 55% 30.31 in 10.0 mi ENE 11.5 mph 19.6 mph N/A   Mostly Cloudy
1:35 PM 59.0 °F 42.8 °F 55% 30.31 in 10.0 mi ENE 11.5 mph 17.3 mph N/A   Overcast
1:55 PM 59.0 °F 42.8 °F 55% 30.30 in 10.0 mi ENE 9.2 mph 17.3 mph N/A   Overcast
2:15 PM 59.0 °F 42.8 °F 55% 30.29 in 10.0 mi ENE 13.8 mph 19.6 mph N/A   Overcast
2:35 PM 59.0 °F 42.8 °F 55% 30.29 in 10.0 mi ENE 11.5 mph - N/A   Overcast
2:55 PM 59.0 °F 42.8 °F 55% 30.29 in 10.0 mi ENE 10.4 mph 18.4 mph N/A   Mostly Cloudy
3:15 PM 59.0 °F 42.8 °F 55% 30.28 in 10.0 mi ENE 9.2 mph 17.3 mph N/A   Partly Cloudy
3:35 PM 59.0 °F 42.8 °F 55% 30.29 in 10.0 mi ENE 9.2 mph 19.6 mph N/A   Scattered Clouds
3:55 PM 59.0 °F 42.8 °F 55% 30.29 in 10.0 mi ENE 11.5 mph - N/A   Mostly Cloudy
4:15 PM 59.0 °F 42.8 °F 55% 30.29 in 10.0 mi ENE 12.7 mph 18.4 mph N/A   Mostly Cloudy
4:35 PM 59.0 °F 42.8 °F 55% 30.30 in 10.0 mi ENE 11.5 mph 19.6 mph N/A   Mostly Cloudy
4:55 PM 59.0 °F 42.8 °F 55% 30.30 in 10.0 mi ENE 10.4 mph 17.3 mph N/A   Partly Cloudy
5:15 PM 59.0 °F 44.6 °F 59% 30.30 in 10.0 mi ENE 11.5 mph 17.3 mph N/A   Clear
5:35 PM - - N/A% 30.31 in 10.0 mi NE 11.5 mph - N/A   Mostly Cloudy
5:55 PM 59.0 °F 44.6 °F 59% 30.32 in 10.0 mi ENE 6.9 mph 17.3 mph N/A   Overcast
6:15 PM 59.0 °F 46.4 °F 63% 30.32 in 10.0 mi ENE 10.4 mph 18.4 mph N/A   Overcast
6:35 PM 59.0 °F 46.4 °F 63% 30.32 in 10.0 mi NE 10.4 mph - N/A   Overcast
6:55 PM 59.0 °F 46.4 °F 63% 30.33 in 10.0 mi ENE 11.5 mph 19.6 mph N/A   Overcast
7:15 PM 59.0 °F 46.4 °F 63% 30.33 in 10.0 mi NE 11.5 mph 17.3 mph N/A   Overcast
7:35 PM 59.0 °F 46.4 °F 63% 30.33 in 10.0 mi ENE 9.2 mph 17.3 mph N/A   Overcast
7:55 PM 59.0 °F 46.4 °F 63% 30.34 in 10.0 mi NE 12.7 mph - N/A   Overcast
8:15 PM 59.0 °F 46.4 °F 63% 30.34 in 10.0 mi NE 12.7 mph - N/A   Overcast
8:35 PM 59.0 °F 46.4 °F 63% 30.35 in 10.0 mi NE 11.5 mph - N/A   Overcast
8:55 PM 59.0 °F 48.2 °F 67% 30.35 in 10.0 mi NE 10.4 mph - N/A   Overcast
9:15 PM 59.0 °F 48.2 °F 67% 30.35 in 10.0 mi NE 10.4 mph - N/A   Mostly Cloudy
9:35 PM 59.0 °F 46.4 °F 63% 30.35 in 10.0 mi ENE 10.4 mph - N/A   Overcast
9:55 PM 59.0 °F 46.4 °F 63% 30.35 in 10.0 mi ENE 10.4 mph - N/A   Overcast
10:15 PM 59.0 °F 44.6 °F 59% 30.34 in 10.0 mi NE 11.5 mph 17.3 mph N/A   Overcast
10:35 PM 59.0 °F 42.8 °F 55% 30.34 in 10.0 mi ENE 10.4 mph 16.1 mph N/A   Overcast
10:55 PM 59.0 °F 44.6 °F 59% 30.34 in 10.0 mi ENE 10.4 mph - N/A   Overcast
11:15 PM 60.8 °F 42.8 °F 52% 30.34 in 10.0 mi ENE 9.2 mph 17.3 mph N/A   Overcast
11:35 PM 60.8 °F 42.8 °F 52% 30.34 in 10.0 mi NE 10.4 mph - N/A   Overcast
11:55 PM 60.8 °F 42.8 °F 52% 30.34 in 10.0 mi NE 11.5 mph 18.4 mph N/A   Mostly Cloudy